createdAt,value
2022-08-14T00:02:06.232Z,5.60
2022-08-14T00:04:41.889Z,4.70
2022-08-14T00:07:14.208Z,4.97
2022-08-14T00:09:55.827Z,5.40
2022-08-14T00:12:37.729Z,4.70
2022-08-14T00:15:17.036Z,4.97
2022-08-14T00:17:47.965Z,5.37
2022-08-14T00:20:30.993Z,4.67
2022-08-14T00:23:14.557Z,4.77
2022-08-14T00:25:53.772Z,4.87
2022-08-14T00:28:35.442Z,4.80
2022-08-14T00:31:17.439Z,4.70
2022-08-14T00:33:51.971Z,5.23
2022-08-14T00:36:37.250Z,7.00
2022-08-14T00:39:18.246Z,4.30
2022-08-14T00:41:47.767Z,4.73
2022-08-14T00:48:34.348Z,4.73
2022-08-14T00:51:09.926Z,5.07
2022-08-14T00:53:40.069Z,4.47
2022-08-14T00:56:14.138Z,4.70
2022-08-14T00:58:45.436Z,4.47
2022-08-14T01:01:21.845Z,4.73
2022-08-14T01:03:52.976Z,4.87
2022-08-14T01:06:21.404Z,4.70
2022-08-14T01:18:23.615Z,5.00
2022-08-14T01:21:11.945Z,4.73
2022-08-14T01:23:47.014Z,5.00
2022-08-14T01:26:23.561Z,4.60
2022-08-14T01:29:05.819Z,4.97
2022-08-14T01:31:41.716Z,5.13
2022-08-14T01:35:17.180Z,5.40
2022-08-14T01:36:57.042Z,5.70
2022-08-14T01:39:24.468Z,5.30
2022-08-14T01:42:01.036Z,5.57
2022-08-14T01:44:33.986Z,4.80
2022-08-14T01:47:21.993Z,5.27
2022-08-14T01:49:59.902Z,7.13
2022-08-14T01:52:57.817Z,4.60
2022-08-14T01:55:32.593Z,5.30
2022-08-14T01:58:19.781Z,5.17
2022-08-14T02:00:55.656Z,5.67
2022-08-14T02:03:31.240Z,5.40
2022-08-14T02:06:04.064Z,4.80
2022-08-14T02:08:53.107Z,5.40
2022-08-14T02:11:25.411Z,5.63
2022-08-14T02:14:14.351Z,6.17
2022-08-14T02:16:54.874Z,6.03
2022-08-14T02:19:26.293Z,5.40
2022-08-14T02:21:59.015Z,5.60
2022-08-14T02:24:38.855Z,5.57
2022-08-14T02:28:24.608Z,5.63
2022-08-14T02:30:00.964Z,5.27
2022-08-14T02:32:37.293Z,5.77
2022-08-14T02:35:13.964Z,5.37
2022-08-14T02:37:48.237Z,6.00
2022-08-14T02:40:32.231Z,5.67
2022-08-14T02:43:05.270Z,5.03
2022-08-14T02:45:38.532Z,5.80
2022-08-14T02:49:01.933Z,6.00
2022-08-14T02:51:14.587Z,5.60
2022-08-14T02:53:45.742Z,5.60
2022-08-14T02:56:30.305Z,6.30
2022-08-14T02:59:09.571Z,5.67
2022-08-14T03:01:43.497Z,5.80
2022-08-14T03:04:20.397Z,5.37
2022-08-14T03:07:06.076Z,6.13
2022-08-14T03:09:34.703Z,6.03
2022-08-14T03:12:27.048Z,5.90
2022-08-14T03:15:16.578Z,6.13
2022-08-14T03:17:56.880Z,6.37
2022-08-14T03:20:30.606Z,5.63
2022-08-14T03:23:03.274Z,7.57
2022-08-14T03:25:37.591Z,5.67
2022-08-14T03:28:14.615Z,6.30
2022-08-14T03:30:59.786Z,5.90
2022-08-14T03:33:38.020Z,7.23
2022-08-14T03:37:39.279Z,6.80
2022-08-14T03:39:12.602Z,6.30
2022-08-14T03:41:43.678Z,6.13
2022-08-14T03:45:19.078Z,6.03
2022-08-14T03:46:59.556Z,6.60
2022-08-14T03:49:30.772Z,6.27
2022-08-14T03:52:00.555Z,6.47
2022-08-14T03:54:29.478Z,6.53
2022-08-14T03:57:02.736Z,6.53
2022-08-14T03:59:35.276Z,6.33
2022-08-14T04:02:09.491Z,6.90
2022-08-14T04:04:54.035Z,6.60
2022-08-14T04:07:22.722Z,6.67
2022-08-14T04:09:50.541Z,6.73
2022-08-14T04:12:26.209Z,6.90
2022-08-14T04:14:54.291Z,6.23
2022-08-14T04:17:21.623Z,6.07
2022-08-14T04:19:49.846Z,6.97
2022-08-14T04:22:17.277Z,6.30
2022-08-14T04:24:49.555Z,6.13
2022-08-14T04:27:17.198Z,6.17
2022-08-14T04:29:45.441Z,6.30
2022-08-14T04:33:01.566Z,7.17
2022-08-14T04:35:10.437Z,6.50
2022-08-14T04:37:56.854Z,6.43
2022-08-14T04:40:42.772Z,5.97
2022-08-14T04:43:38.247Z,7.13
2022-08-14T04:46:56.823Z,6.57
2022-08-14T04:49:04.000Z,6.73
2022-08-14T04:51:47.003Z,7.27
2022-08-14T04:54:27.088Z,7.40
2022-08-14T04:56:58.523Z,7.13
2022-08-14T04:59:26.964Z,7.83
2022-08-14T05:01:57.105Z,7.90
2022-08-14T05:04:25.239Z,7.43
2022-08-14T05:06:55.486Z,8.03
2022-08-14T05:09:29.354Z,7.70
2022-08-14T05:12:00.607Z,8.17
2022-08-14T05:14:55.197Z,7.83
2022-08-14T05:17:32.076Z,7.30
2022-08-14T05:21:04.934Z,7.13
2022-08-14T05:23:00.087Z,7.37
2022-08-14T05:25:31.926Z,7.57
2022-08-14T05:28:32.108Z,8.37
2022-08-14T05:31:06.974Z,7.60
2022-08-14T05:33:36.742Z,7.87
2022-08-14T05:36:16.650Z,8.20
2022-08-14T05:38:47.609Z,7.97
2022-08-14T05:41:19.446Z,7.87
2022-08-14T05:43:48.344Z,7.60
2022-08-14T05:46:24.003Z,7.53
2022-08-14T05:48:55.371Z,7.43
2022-08-14T05:51:26.481Z,7.80
2022-08-14T05:54:00.089Z,8.00
2022-08-14T05:56:30.171Z,7.57
2022-08-14T05:58:57.682Z,7.93
2022-08-14T06:01:31.485Z,7.87
2022-08-14T06:03:59.529Z,7.77
2022-08-14T06:06:27.476Z,7.57
2022-08-14T06:08:54.788Z,7.90
2022-08-14T06:11:30.519Z,8.40
2022-08-14T06:13:58.781Z,7.83
2022-08-14T06:16:26.110Z,7.60
2022-08-14T06:18:53.492Z,7.47
2022-08-14T06:21:23.050Z,8.03
2022-08-14T06:23:51.442Z,8.07
2022-08-14T06:26:20.573Z,8.10
2022-08-14T06:28:52.131Z,7.67
2022-08-14T06:31:21.280Z,8.07
2022-08-14T06:35:03.352Z,8.20
2022-08-14T06:36:39.458Z,7.63
2022-08-14T06:39:09.952Z,7.23
2022-08-14T06:41:57.607Z,7.53
2022-08-14T06:44:32.268Z,7.53
2022-08-14T06:47:01.952Z,8.10
2022-08-14T06:49:30.277Z,7.20
2022-08-14T06:51:57.977Z,7.30
2022-08-14T06:54:31.705Z,7.70
2022-08-14T06:56:59.331Z,7.33
2022-08-14T06:59:27.053Z,8.13
2022-08-14T07:02:13.271Z,8.23
2022-08-14T07:05:01.211Z,7.70
2022-08-14T07:07:39.298Z,7.40
2022-08-14T07:10:16.762Z,7.47
2022-08-14T07:13:01.471Z,7.77
2022-08-14T07:15:32.519Z,6.73
2022-08-14T07:18:01.729Z,7.50
2022-08-14T07:20:32.071Z,6.90
2022-08-14T07:23:09.267Z,7.30
2022-08-14T07:25:47.856Z,7.67
2022-08-14T07:28:27.251Z,7.53
2022-08-14T07:31:04.627Z,8.03
2022-08-14T07:33:50.356Z,7.30
2022-08-14T07:36:27.748Z,7.03
2022-08-14T07:39:03.044Z,7.13
2022-08-14T07:41:35.574Z,6.93
2022-08-14T07:44:29.214Z,7.40
2022-08-14T07:46:51.468Z,6.50
2022-08-14T07:49:20.314Z,6.73
2022-08-14T07:51:49.615Z,6.53
2022-08-14T07:54:23.705Z,6.30
2022-08-14T07:57:12.235Z,7.17
2022-08-14T07:59:44.679Z,7.17
2022-08-14T08:02:19.318Z,6.80
2022-08-14T08:04:58.877Z,6.50
2022-08-14T08:07:32.084Z,6.30
2022-08-14T08:10:40.641Z,6.67
2022-08-14T08:13:16.709Z,7.17
2022-08-14T08:15:47.587Z,7.20
2022-08-14T08:18:20.583Z,7.30
2022-08-14T08:20:56.035Z,6.67
2022-08-14T08:23:40.063Z,7.10
2022-08-14T08:26:11.156Z,6.83
2022-08-14T08:28:38.292Z,7.40
2022-08-14T08:31:12.900Z,7.23
2022-08-14T08:33:46.973Z,7.00
2022-08-14T08:36:18.670Z,7.00
2022-08-14T08:39:18.019Z,7.43
2022-08-14T08:41:49.538Z,7.20
2022-08-14T08:44:32.982Z,7.40
2022-08-14T08:47:06.667Z,7.47
2022-08-14T08:49:48.404Z,7.50
2022-08-14T08:52:25.509Z,6.97
2022-08-14T08:54:56.552Z,6.80
2022-08-14T08:57:24.407Z,6.80
2022-08-14T09:00:25.414Z,6.97
2022-08-14T09:02:57.690Z,6.40
2022-08-14T09:05:26.283Z,6.70
2022-08-14T09:07:56.650Z,6.53
2022-08-14T09:10:27.098Z,6.70
2022-08-14T09:12:56.405Z,5.90
2022-08-14T09:15:24.239Z,6.30
2022-08-14T09:17:52.554Z,6.82
2022-08-14T09:20:29.395Z,6.30
2022-08-14T09:22:59.860Z,6.05
2022-08-14T09:26:01.250Z,6.32
2022-08-14T09:28:17.145Z,5.78
2022-08-14T09:30:57.716Z,6.03
2022-08-14T09:33:56.652Z,6.32
2022-08-14T09:37:07.402Z,5.60
2022-08-14T09:40:16.779Z,5.60
2022-08-14T09:43:10.315Z,5.95
2022-08-14T09:45:53.526Z,5.57
2022-08-14T09:48:27.488Z,6.60
2022-08-14T09:54:19.312Z,6.85
2022-08-14T09:56:56.792Z,7.10
2022-08-14T09:59:33.460Z,6.57
2022-08-14T10:02:03.374Z,6.40
2022-08-14T10:04:33.720Z,6.53
2022-08-14T10:07:05.270Z,6.90
2022-08-14T10:09:33.578Z,6.93
2022-08-14T10:12:04.368Z,6.43
2022-08-14T10:14:36.606Z,6.38
2022-08-14T10:17:08.513Z,6.38
2022-08-14T10:19:46.985Z,6.40
2022-08-14T10:23:21.874Z,6.47
2022-08-14T10:25:15.595Z,6.13
2022-08-14T10:27:46.807Z,6.43
2022-08-14T10:30:22.370Z,5.20
2022-08-14T10:32:55.540Z,5.57
2022-08-14T10:35:31.748Z,5.75
2022-08-14T10:38:01.484Z,5.72
2022-08-14T10:40:37.790Z,5.72
2022-08-14T10:43:26.790Z,5.68
2022-08-14T10:47:37.009Z,5.88
2022-08-14T10:49:06.496Z,5.35
2022-08-14T10:51:39.712Z,5.22
2022-08-14T10:54:17.177Z,5.05
2022-08-14T10:57:20.461Z,4.38
2022-08-14T11:00:20.767Z,5.25
2022-08-14T11:03:19.904Z,4.88
2022-08-14T11:05:55.582Z,5.25
2022-08-14T11:08:34.297Z,4.30
2022-08-14T11:11:21.138Z,4.32
2022-08-14T11:13:57.524Z,4.70
2022-08-14T11:16:27.035Z,4.15
2022-08-14T11:18:59.732Z,3.67
2022-08-14T11:21:30.341Z,3.97
2022-08-14T11:24:55.048Z,4.32
2022-08-14T11:26:53.604Z,5.07
2022-08-14T11:29:24.578Z,4.07
2022-08-14T11:31:57.014Z,3.67
2022-08-14T11:34:32.199Z,3.70
2022-08-14T11:37:22.948Z,4.07
2022-08-14T11:39:59.144Z,3.80
2022-08-14T11:42:58.784Z,4.18
2022-08-14T11:45:23.203Z,3.80
2022-08-14T11:48:13.090Z,4.15
2022-08-14T11:50:49.396Z,4.28
2022-08-14T11:53:31.383Z,4.47
2022-08-14T11:56:05.472Z,3.60
2022-08-14T11:58:38.240Z,3.42
2022-08-14T12:01:09.573Z,3.90
2022-08-14T12:03:52.164Z,4.05
2022-08-14T12:06:29.310Z,4.20
2022-08-14T12:09:03.054Z,4.00
2022-08-14T12:11:47.513Z,4.22
2022-08-14T12:14:29.097Z,4.25
2022-08-14T12:17:11.928Z,4.03
2022-08-14T12:19:54.247Z,3.72
2022-08-14T12:22:44.793Z,3.90
2022-08-14T12:25:19.672Z,3.67
2022-08-14T12:27:52.517Z,3.42
2022-08-14T12:30:43.118Z,3.70
2022-08-14T12:33:33.869Z,3.40
2022-08-14T12:36:08.851Z,3.90
2022-08-14T12:38:43.524Z,3.42
2022-08-14T12:41:22.016Z,3.92
2022-08-14T12:43:59.898Z,3.88
2022-08-14T12:46:33.815Z,4.45
2022-08-14T12:49:11.863Z,4.00
2022-08-14T12:51:44.832Z,3.92
2022-08-14T12:54:27.583Z,3.92
2022-08-14T12:57:19.804Z,3.65
2022-08-14T12:59:49.212Z,4.20
2022-08-14T13:02:26.982Z,3.40
2022-08-14T13:04:58.140Z,3.42
2022-08-14T13:07:32.746Z,3.45
2022-08-14T13:10:46.850Z,3.53
2022-08-14T13:13:12.519Z,3.45
2022-08-14T13:15:40.654Z,3.80
2022-08-14T13:18:10.620Z,4.03
2022-08-14T13:20:48.127Z,4.07
2022-08-14T13:23:30.364Z,3.92
2022-08-14T13:25:59.834Z,3.80
2022-08-14T13:28:32.776Z,4.55
2022-08-14T13:31:11.033Z,3.45
2022-08-14T13:33:40.888Z,4.05
2022-08-14T13:36:10.211Z,3.70
2022-08-14T13:38:52.329Z,14.52
2022-08-14T13:41:28.035Z,3.80
2022-08-14T13:44:03.429Z,4.15
2022-08-14T13:46:30.540Z,4.38
2022-08-14T13:49:01.578Z,4.30
2022-08-14T13:51:38.428Z,3.50
2022-08-14T13:54:10.879Z,3.65
2022-08-14T13:56:42.025Z,3.72
2022-08-14T13:59:10.519Z,3.60
2022-08-14T14:01:44.000Z,3.60
2022-08-14T14:04:19.967Z,3.40
2022-08-14T14:06:52.260Z,3.30
2022-08-14T14:09:32.394Z,3.25
2022-08-14T14:12:08.030Z,3.92
2022-08-14T14:14:56.522Z,3.00
2022-08-14T14:17:25.393Z,3.58
2022-08-14T14:19:58.631Z,3.63
2022-08-14T14:22:35.592Z,3.83
2022-08-14T14:25:22.190Z,3.50
2022-08-14T14:27:53.287Z,4.00
2022-08-14T14:30:46.564Z,3.20
2022-08-14T14:33:42.129Z,3.65
2022-08-14T14:36:04.970Z,3.42
2022-08-14T14:38:34.323Z,3.28
2022-08-14T14:41:05.609Z,3.35
2022-08-14T14:43:36.138Z,3.45
2022-08-14T14:46:09.640Z,3.10
2022-08-14T14:48:54.182Z,3.50
2022-08-14T14:51:22.251Z,3.33
2022-08-14T14:53:49.748Z,3.72
2022-08-14T14:56:50.580Z,3.50
2022-08-14T14:59:06.171Z,3.55
2022-08-14T15:01:37.015Z,3.30
2022-08-14T15:04:20.044Z,4.00
2022-08-14T15:06:50.035Z,3.80
2022-08-14T15:09:18.481Z,3.75
2022-08-14T15:11:47.714Z,3.60
2022-08-14T15:14:56.166Z,3.53
2022-08-14T15:17:03.002Z,3.60
2022-08-14T15:19:32.153Z,3.60
2022-08-14T15:21:59.415Z,3.40
2022-08-14T15:24:27.218Z,3.50
2022-08-14T15:26:58.520Z,3.30
2022-08-14T15:29:27.482Z,3.55
2022-08-14T15:31:54.742Z,3.55
2022-08-14T15:34:45.752Z,3.30
2022-08-14T15:37:12.654Z,3.58
2022-08-14T15:39:41.211Z,3.30
2022-08-14T15:42:14.478Z,3.67
2022-08-14T15:44:58.047Z,3.40
2022-08-14T15:47:31.454Z,3.45
2022-08-14T15:50:01.626Z,4.20
2022-08-14T15:52:37.398Z,4.03
2022-08-14T15:55:10.190Z,4.80
2022-08-14T15:58:02.381Z,4.20
2022-08-14T16:00:49.359Z,3.60
2022-08-14T16:03:25.327Z,4.00
2022-08-14T16:06:01.893Z,3.47
2022-08-14T16:08:30.849Z,3.55
2022-08-14T16:11:01.318Z,5.95
2022-08-14T16:13:41.183Z,3.80
2022-08-14T16:16:47.056Z,4.20
2022-08-14T16:19:11.459Z,3.83
2022-08-14T16:22:02.274Z,3.65
2022-08-14T16:24:33.360Z,3.50
2022-08-14T16:27:03.526Z,3.45
2022-08-14T16:29:36.351Z,3.33
2022-08-14T16:32:33.452Z,3.90
2022-08-14T16:34:57.349Z,3.85
2022-08-14T16:37:30.693Z,4.22
2022-08-14T16:40:00.730Z,5.15
2022-08-14T16:43:02.436Z,5.63
2022-08-14T16:45:26.533Z,6.68
2022-08-14T16:47:55.385Z,5.32
2022-08-14T16:50:40.442Z,5.45
2022-08-14T16:53:17.200Z,5.70
2022-08-14T16:55:50.995Z,6.32
2022-08-14T16:58:30.312Z,4.88
2022-08-14T17:01:25.115Z,4.93
2022-08-14T17:04:24.430Z,4.50
2022-08-14T17:06:56.014Z,4.82
2022-08-14T17:09:30.946Z,4.90
2022-08-14T17:12:28.956Z,4.80
2022-08-14T17:15:11.195Z,4.68
2022-08-14T17:17:57.481Z,4.80
2022-08-14T17:20:54.802Z,4.95
2022-08-14T17:23:14.941Z,4.93
2022-08-14T17:25:50.896Z,4.37
2022-08-14T17:28:52.462Z,4.80
2022-08-14T17:31:12.288Z,9.87
2022-08-14T17:33:44.687Z,4.95
2022-08-14T17:36:24.279Z,4.80
2022-08-14T17:39:13.315Z,5.28
2022-08-14T17:42:01.775Z,4.77
2022-08-14T17:44:45.637Z,4.77
2022-08-14T17:47:18.018Z,5.13
2022-08-14T17:49:52.243Z,5.20
2022-08-14T17:52:34.938Z,5.27
2022-08-14T17:55:12.735Z,4.90
2022-08-14T17:57:59.359Z,4.60
2022-08-14T18:00:28.571Z,4.70
2022-08-14T18:02:59.242Z,5.07
2022-08-14T18:06:08.646Z,4.97
2022-08-14T18:08:33.733Z,5.07
2022-08-14T18:11:03.804Z,5.00
2022-08-14T18:13:51.920Z,5.47
2022-08-14T18:16:23.537Z,4.73
2022-08-14T18:18:54.891Z,4.90
2022-08-14T18:21:56.881Z,5.13
2022-08-14T18:24:29.753Z,5.70
2022-08-14T18:27:15.104Z,5.87
2022-08-14T18:29:58.044Z,5.23
2022-08-14T18:32:28.087Z,5.10
2022-08-14T18:35:11.485Z,5.07
2022-08-14T18:37:42.818Z,5.50
2022-08-14T18:40:34.687Z,4.97
2022-08-14T18:43:05.151Z,5.93
2022-08-14T18:45:42.969Z,6.60
2022-08-14T18:48:20.990Z,5.63
2022-08-14T18:51:10.701Z,5.53
2022-08-14T18:53:57.169Z,5.40
2022-08-14T18:57:01.767Z,5.83
2022-08-14T18:59:40.239Z,5.73
2022-08-14T19:02:30.687Z,5.80
2022-08-14T19:05:02.463Z,6.00
2022-08-14T19:07:33.921Z,5.83
2022-08-14T19:10:07.200Z,6.07
2022-08-14T19:12:53.441Z,6.27
2022-08-14T19:15:26.097Z,6.07
2022-08-14T19:18:14.937Z,5.73
2022-08-14T19:20:49.212Z,5.97
2022-08-14T19:23:42.669Z,7.03
2022-08-14T19:26:35.349Z,6.47
2022-08-14T19:29:37.875Z,6.60
2022-08-14T19:32:40.205Z,6.53
2022-08-14T19:35:48.427Z,5.83
2022-08-14T19:38:52.135Z,6.13
2022-08-14T19:41:52.077Z,6.40
2022-08-14T19:44:31.651Z,9.37
2022-08-14T19:47:04.781Z,6.80
2022-08-14T19:50:09.025Z,6.57
2022-08-14T19:52:39.729Z,7.20
2022-08-14T19:55:20.279Z,8.30
2022-08-14T19:57:52.347Z,6.70
2022-08-14T20:00:29.450Z,6.63
2022-08-14T20:03:10.964Z,6.97
2022-08-14T20:05:45.802Z,6.97
2022-08-14T20:09:05.351Z,6.57
2022-08-14T20:11:43.325Z,6.37
2022-08-14T20:14:20.589Z,6.97
2022-08-14T20:17:04.957Z,7.60
2022-08-14T20:19:37.411Z,6.30
2022-08-14T20:22:36.565Z,7.43
2022-08-14T20:25:21.850Z,6.30
2022-08-14T20:27:59.568Z,7.67
2022-08-14T20:30:33.536Z,6.93
2022-08-14T20:33:14.280Z,7.47
2022-08-14T20:35:47.619Z,7.27
2022-08-14T20:38:30.438Z,7.50
2022-08-14T20:41:09.681Z,7.40
2022-08-14T20:43:59.487Z,7.57
2022-08-14T20:46:38.820Z,7.37
2022-08-14T20:49:19.283Z,7.13
2022-08-14T20:52:00.062Z,7.17
2022-08-14T20:54:37.061Z,6.80
2022-08-14T20:57:18.243Z,8.27
2022-08-14T20:59:57.397Z,7.40
2022-08-14T21:02:46.554Z,7.13
2022-08-14T21:05:34.193Z,7.30
2022-08-14T21:08:08.329Z,7.20
2022-08-14T21:10:44.023Z,7.40
2022-08-14T21:13:27.452Z,8.00
2022-08-14T21:16:34.612Z,6.77
2022-08-14T21:18:58.898Z,7.23
2022-08-14T21:21:41.851Z,7.57
2022-08-14T21:24:38.765Z,7.13
2022-08-14T21:27:12.837Z,7.67
2022-08-14T21:29:53.877Z,7.37
2022-08-14T21:32:34.661Z,6.90
2022-08-14T21:35:08.164Z,7.00
2022-08-14T21:38:01.039Z,7.27
2022-08-14T21:40:42.132Z,7.57
2022-08-14T21:43:18.169Z,7.70
2022-08-14T21:45:53.235Z,7.73
2022-08-14T21:48:29.264Z,7.80
2022-08-14T21:51:52.949Z,6.87
2022-08-14T21:53:58.595Z,8.03
2022-08-14T21:56:38.720Z,7.67
2022-08-14T21:59:18.421Z,7.63
2022-08-14T22:01:59.440Z,7.07
2022-08-14T22:04:40.591Z,7.73
2022-08-14T22:07:16.698Z,7.40
2022-08-14T22:09:45.701Z,7.53
2022-08-14T22:12:47.339Z,6.87
2022-08-14T22:15:17.026Z,7.57
2022-08-14T22:17:54.664Z,7.97
2022-08-14T22:20:28.957Z,8.00
2022-08-14T22:22:59.368Z,6.83
2022-08-14T22:25:33.114Z,7.47
2022-08-14T22:28:04.384Z,7.03
2022-08-14T22:30:33.752Z,7.20
2022-08-14T22:33:01.755Z,6.93
2022-08-14T22:35:29.911Z,7.13
2022-08-14T22:38:34.580Z,7.17
2022-08-14T22:41:07.858Z,7.03
2022-08-14T22:43:36.918Z,6.40
2022-08-14T22:46:15.124Z,7.13
2022-08-14T22:48:49.352Z,7.10
2022-08-14T22:51:21.804Z,7.10
2022-08-14T22:53:54.593Z,6.43
2022-08-14T22:56:30.128Z,6.83
2022-08-14T22:59:02.155Z,6.50
2022-08-14T23:01:55.775Z,7.57
2022-08-14T23:04:34.996Z,6.20
2022-08-14T23:07:22.473Z,6.33
2022-08-14T23:09:57.822Z,6.50
2022-08-14T23:12:54.190Z,6.23
2022-08-14T23:15:28.929Z,6.30
2022-08-14T23:17:57.854Z,6.07
2022-08-14T23:20:29.418Z,6.17
2022-08-14T23:22:58.134Z,7.10
2022-08-14T23:25:57.592Z,6.43
2022-08-14T23:28:34.256Z,6.10
2022-08-14T23:31:34.446Z,5.57
2022-08-14T23:34:08.971Z,6.20
2022-08-14T23:36:54.201Z,6.07
2022-08-14T23:39:30.215Z,6.23
2022-08-14T23:42:07.632Z,6.37
2022-08-14T23:44:38.186Z,6.20
2022-08-14T23:47:11.496Z,5.83
2022-08-14T23:50:00.410Z,6.47
2022-08-14T23:52:51.192Z,6.53
2022-08-14T23:55:22.981Z,6.20
2022-08-14T23:57:57.645Z,6.40
